createdAt,value
2019-03-28T00:00:05.966Z,8.10
2019-03-28T00:02:34.404Z,8.10
2019-03-28T00:05:02.790Z,8.00
2019-03-28T00:07:31.255Z,8.10
2019-03-28T00:09:59.630Z,8.00
2019-03-28T00:12:29.073Z,8.00
2019-03-28T00:14:57.454Z,8.00
2019-03-28T00:17:25.942Z,7.90
2019-03-28T00:19:54.376Z,8.00
2019-03-28T00:22:37.482Z,7.90
2019-03-28T00:25:07.585Z,7.90
2019-03-28T00:27:36.002Z,7.90
2019-03-28T00:30:06.406Z,7.90
2019-03-28T00:32:35.914Z,7.90
2019-03-28T00:35:05.922Z,8.00
2019-03-28T00:37:35.225Z,7.90
2019-03-28T00:40:04.799Z,7.90
2019-03-28T00:42:33.694Z,7.90
2019-03-28T00:45:02.069Z,7.90
2019-03-28T00:47:30.480Z,7.90
2019-03-28T00:49:58.867Z,7.90
2019-03-28T00:52:27.455Z,7.90
2019-03-28T00:54:55.831Z,7.90
2019-03-28T00:57:24.264Z,7.90
2019-03-28T00:59:52.663Z,7.90
2019-03-28T01:02:21.242Z,7.90
2019-03-28T01:04:49.861Z,7.90
2019-03-28T01:07:18.228Z,7.90
2019-03-28T01:09:46.643Z,7.90
2019-03-28T01:12:16.003Z,7.80
2019-03-28T01:14:44.466Z,7.80
2019-03-28T01:17:12.837Z,7.80
2019-03-28T01:19:41.282Z,7.80
2019-03-28T01:22:09.667Z,7.80
2019-03-28T01:24:38.089Z,7.80
2019-03-28T01:27:06.537Z,7.80
2019-03-28T01:29:34.932Z,7.80
2019-03-28T01:32:03.370Z,7.80
2019-03-28T01:34:31.824Z,7.80
2019-03-28T01:37:00.189Z,7.70
2019-03-28T01:39:28.670Z,7.70
2019-03-28T01:41:57.047Z,7.70
2019-03-28T01:44:25.466Z,7.70
2019-03-28T01:46:53.850Z,7.70
2019-03-28T01:49:22.294Z,7.70
2019-03-28T01:51:50.677Z,7.70
2019-03-28T01:54:20.073Z,7.70
2019-03-28T01:56:48.497Z,7.70
2019-03-28T01:59:16.883Z,7.70
2019-03-28T02:01:45.300Z,7.70
2019-03-28T02:04:13.709Z,7.70
2019-03-28T02:06:42.097Z,7.60
2019-03-28T02:09:10.719Z,7.60
2019-03-28T02:11:39.133Z,7.60
2019-03-28T02:14:07.564Z,7.60
2019-03-28T02:16:36.006Z,7.60
2019-03-28T02:19:06.454Z,7.50
2019-03-28T02:21:35.056Z,7.50
2019-03-28T02:24:03.514Z,7.50
2019-03-28T02:26:31.903Z,7.60
2019-03-28T02:29:00.360Z,7.50
2019-03-28T02:31:28.803Z,7.50
2019-03-28T02:33:57.204Z,7.50
2019-03-28T02:36:25.593Z,7.50
2019-03-28T02:38:54.003Z,7.50
2019-03-28T02:41:22.481Z,7.40
2019-03-28T02:43:50.932Z,7.40
2019-03-28T02:46:19.368Z,7.40
2019-03-28T02:48:47.749Z,7.50
2019-03-28T02:51:16.233Z,7.50
2019-03-28T02:53:44.602Z,7.40
2019-03-28T02:56:13.084Z,7.50
2019-03-28T02:58:41.454Z,7.50
2019-03-28T03:01:10.024Z,7.50
2019-03-28T03:03:39.325Z,7.50
2019-03-28T03:06:07.735Z,7.50
2019-03-28T03:08:36.127Z,7.50
2019-03-28T03:11:04.533Z,7.40
2019-03-28T03:13:33.015Z,7.40
2019-03-28T03:16:01.403Z,7.40
2019-03-28T03:18:29.819Z,7.40
2019-03-28T03:20:58.210Z,7.40
2019-03-28T03:23:26.687Z,7.40
2019-03-28T03:25:55.102Z,7.30
2019-03-28T03:28:23.501Z,7.40
2019-03-28T03:30:51.903Z,7.30
2019-03-28T03:33:20.537Z,7.40
2019-03-28T03:35:50.117Z,7.40
2019-03-28T03:38:18.630Z,7.40
2019-03-28T03:40:47.018Z,7.30
2019-03-28T03:43:15.407Z,7.40
2019-03-28T03:45:43.814Z,7.40
2019-03-28T03:48:12.305Z,7.30
2019-03-28T03:50:40.814Z,7.30
2019-03-28T03:53:09.253Z,7.30
2019-03-28T03:55:37.762Z,7.30
2019-03-28T03:58:15.660Z,7.20
2019-03-28T04:00:36.690Z,7.20
2019-03-28T04:03:05.077Z,7.20
2019-03-28T04:05:33.544Z,7.20
2019-03-28T04:08:01.912Z,7.20
2019-03-28T04:10:30.448Z,7.30
2019-03-28T04:12:58.839Z,7.30
2019-03-28T04:15:27.226Z,7.20
2019-03-28T04:17:55.694Z,7.20
2019-03-28T04:20:24.910Z,7.10
2019-03-28T04:22:53.895Z,7.20
2019-03-28T04:25:22.314Z,7.20
2019-03-28T04:27:50.691Z,7.10
2019-03-28T04:30:19.104Z,7.10
2019-03-28T04:32:47.526Z,7.10
2019-03-28T04:35:15.905Z,7.10
2019-03-28T04:37:44.336Z,7.00
2019-03-28T04:40:12.777Z,7.00
2019-03-28T04:42:41.169Z,7.00
2019-03-28T04:45:32.408Z,7.00
2019-03-28T04:48:01.517Z,7.00
2019-03-28T04:50:30.047Z,7.00
2019-03-28T04:52:58.458Z,7.00
2019-03-28T04:55:26.869Z,7.00
2019-03-28T04:57:55.474Z,7.00
2019-03-28T05:00:24.103Z,7.00
2019-03-28T05:02:52.654Z,6.90
2019-03-28T05:05:21.087Z,7.00
2019-03-28T05:07:49.525Z,7.00
2019-03-28T05:10:17.998Z,7.00
2019-03-28T05:12:46.376Z,7.00
2019-03-28T05:15:14.851Z,7.00
2019-03-28T05:17:43.235Z,7.10
2019-03-28T05:20:13.241Z,7.10
2019-03-28T05:22:41.745Z,7.10
2019-03-28T05:25:10.220Z,7.10
2019-03-28T05:27:38.802Z,7.20
2019-03-28T05:30:09.015Z,7.20
2019-03-28T05:32:38.394Z,7.20
2019-03-28T05:35:07.035Z,7.20
2019-03-28T05:37:36.373Z,7.20
2019-03-28T05:40:07.065Z,7.20
2019-03-28T05:42:35.454Z,7.20
2019-03-28T05:45:06.376Z,7.30
2019-03-28T05:47:34.894Z,7.30
2019-03-28T05:50:03.742Z,7.40
2019-03-28T05:52:32.170Z,7.40
2019-03-28T05:55:00.647Z,7.40
2019-03-28T05:57:29.004Z,7.40
2019-03-28T05:59:57.500Z,7.50
2019-03-28T06:02:26.136Z,7.50
2019-03-28T06:04:54.633Z,7.50
2019-03-28T06:07:23.004Z,7.50
2019-03-28T06:09:51.414Z,7.60
2019-03-28T06:12:19.858Z,7.60
2019-03-28T06:14:48.282Z,7.70
2019-03-28T06:17:16.677Z,7.60
2019-03-28T06:19:45.110Z,7.70
2019-03-28T06:22:13.708Z,7.80
2019-03-28T06:24:42.106Z,7.90
2019-03-28T06:27:10.490Z,7.90
2019-03-28T06:29:38.930Z,8.00
2019-03-28T06:32:07.351Z,8.10
2019-03-28T06:34:35.734Z,8.20
2019-03-28T06:37:04.208Z,8.20
2019-03-28T06:39:32.574Z,8.30
2019-03-28T06:42:01.064Z,8.20
2019-03-28T06:44:29.432Z,8.20
2019-03-28T06:46:57.847Z,8.20
2019-03-28T06:49:26.232Z,8.30
2019-03-28T06:51:54.669Z,8.50
2019-03-28T06:54:24.420Z,8.50
2019-03-28T06:56:52.992Z,8.60
2019-03-28T06:59:21.370Z,8.60
2019-03-28T07:01:52.046Z,8.50
2019-03-28T07:04:20.613Z,8.70
2019-03-28T07:06:48.986Z,8.80
2019-03-28T07:09:18.289Z,8.80
2019-03-28T07:11:47.772Z,8.80
2019-03-28T07:14:16.246Z,8.70
2019-03-28T07:16:44.623Z,8.80
2019-03-28T07:19:13.112Z,9.00
2019-03-28T07:21:41.585Z,8.90
2019-03-28T07:24:10.022Z,8.90
2019-03-28T07:26:38.392Z,8.80
2019-03-28T07:29:06.961Z,8.90
2019-03-28T07:31:35.736Z,9.00
2019-03-28T07:34:27.397Z,9.10
2019-03-28T07:36:55.875Z,9.10
2019-03-28T07:39:24.189Z,9.30
2019-03-28T07:41:53.648Z,9.30
2019-03-28T07:44:22.156Z,9.50
2019-03-28T07:46:50.542Z,9.40
2019-03-28T07:49:19.984Z,9.40
2019-03-28T07:51:48.549Z,9.40
2019-03-28T07:54:16.946Z,9.50
2019-03-28T07:56:45.416Z,9.80
2019-03-28T07:59:13.852Z,9.90
2019-03-28T08:01:42.283Z,10.20
2019-03-28T08:04:12.281Z,10.30
2019-03-28T08:06:49.729Z,10.30
2019-03-28T08:09:10.998Z,10.10
2019-03-28T08:11:39.489Z,10.00
2019-03-28T08:14:07.853Z,9.90
2019-03-28T08:16:36.307Z,10.30
2019-03-28T08:19:07.841Z,10.50
2019-03-28T08:21:34.837Z,10.40
2019-03-28T08:24:03.308Z,10.70
2019-03-28T08:26:31.702Z,10.70
2019-03-28T08:29:00.175Z,10.80
2019-03-28T08:31:28.569Z,11.00
2019-03-28T08:33:56.982Z,10.70
2019-03-28T08:36:25.441Z,10.80
2019-03-28T08:38:53.826Z,10.80
2019-03-28T08:41:22.300Z,11.00
2019-03-28T08:43:50.844Z,10.80
2019-03-28T08:46:20.216Z,10.80
2019-03-28T08:48:48.657Z,11.10
2019-03-28T08:51:17.104Z,11.00
2019-03-28T08:53:45.543Z,11.20
2019-03-28T08:56:13.994Z,11.20
2019-03-28T08:58:42.465Z,11.00
2019-03-28T09:01:10.867Z,11.10
2019-03-28T09:03:39.255Z,11.10
2019-03-28T09:06:07.662Z,11.10
2019-03-28T09:08:36.138Z,11.30
2019-03-28T09:11:04.740Z,11.40
2019-03-28T09:13:33.184Z,10.90
2019-03-28T09:16:02.658Z,11.10
2019-03-28T09:18:31.063Z,11.30
2019-03-28T09:20:59.455Z,11.60
2019-03-28T09:23:27.921Z,12.10
2019-03-28T09:25:56.318Z,12.40
2019-03-28T09:28:24.906Z,12.40
2019-03-28T09:30:54.305Z,12.70
2019-03-28T09:33:22.787Z,12.70
2019-03-28T09:35:51.199Z,13.00
2019-03-28T09:38:19.673Z,12.40
2019-03-28T09:40:48.131Z,12.20
2019-03-28T09:43:16.551Z,12.90
2019-03-28T09:45:45.995Z,13.10
2019-03-28T09:48:14.439Z,12.60
2019-03-28T09:50:42.849Z,12.70
2019-03-28T09:53:11.245Z,12.70
2019-03-28T09:55:39.711Z,12.50
2019-03-28T09:58:08.085Z,12.50
2019-03-28T10:00:36.564Z,13.10
2019-03-28T10:03:04.995Z,13.20
2019-03-28T10:05:33.446Z,13.50
2019-03-28T10:08:01.863Z,13.50
2019-03-28T10:10:30.254Z,14.10
2019-03-28T10:12:58.703Z,14.50
2019-03-28T10:15:27.280Z,14.80
2019-03-28T10:17:55.723Z,14.60
2019-03-28T10:20:24.096Z,14.40
2019-03-28T10:22:52.513Z,14.90
2019-03-28T10:25:20.914Z,15.20
2019-03-28T10:27:49.325Z,14.30
2019-03-28T10:30:19.476Z,15.00
2019-03-28T10:32:47.970Z,15.70
2019-03-28T10:35:23.637Z,15.40
2019-03-28T10:37:52.158Z,14.80
2019-03-28T10:40:20.558Z,14.40
2019-03-28T10:42:48.954Z,14.40
2019-03-28T10:45:17.366Z,15.30
2019-03-28T10:47:45.762Z,14.70
2019-03-28T10:50:14.240Z,14.70
2019-03-28T10:52:42.614Z,14.50
2019-03-28T10:55:11.144Z,13.30
2019-03-28T10:57:39.513Z,14.00
2019-03-28T11:00:08.093Z,14.80
2019-03-28T11:02:36.507Z,14.50
2019-03-28T11:05:05.909Z,13.80
2019-03-28T11:07:34.310Z,13.90
2019-03-28T11:10:02.824Z,14.30
2019-03-28T11:12:31.276Z,14.80
2019-03-28T11:14:59.690Z,13.90
2019-03-28T11:17:28.105Z,14.10
2019-03-28T11:19:56.506Z,13.70
2019-03-28T11:22:24.972Z,13.80
2019-03-28T11:24:53.445Z,13.80
2019-03-28T11:27:21.835Z,14.10
2019-03-28T11:29:50.282Z,13.70
2019-03-28T11:32:18.784Z,14.10
2019-03-28T11:34:47.491Z,14.10
2019-03-28T11:37:25.953Z,14.70
2019-03-28T11:39:46.660Z,14.70
2019-03-28T11:42:15.301Z,15.00
2019-03-28T11:44:43.719Z,15.40
2019-03-28T11:47:12.169Z,15.60
2019-03-28T11:49:40.571Z,15.10
2019-03-28T11:52:09.022Z,14.60
2019-03-28T11:54:37.550Z,14.10
2019-03-28T11:57:05.994Z,14.20
2019-03-28T11:59:34.399Z,14.60
2019-03-28T12:02:18.691Z,14.80
2019-03-28T12:04:33.041Z,15.00
2019-03-28T12:07:01.466Z,15.20
2019-03-28T12:09:29.913Z,15.40
2019-03-28T12:11:58.309Z,15.50
2019-03-28T12:14:26.725Z,16.00
2019-03-28T12:16:55.138Z,16.30
2019-03-28T12:19:23.530Z,14.90
2019-03-28T12:21:52.011Z,14.90
2019-03-28T12:24:20.391Z,15.20
2019-03-28T12:26:48.915Z,15.10
2019-03-28T12:29:17.345Z,14.70
2019-03-28T12:31:46.762Z,15.40
2019-03-28T12:34:15.226Z,16.10
2019-03-28T12:36:44.687Z,15.90
2019-03-28T12:39:15.649Z,15.90
2019-03-28T12:41:43.455Z,16.10
2019-03-28T12:44:11.848Z,15.90
2019-03-28T12:46:40.332Z,15.20
2019-03-28T12:49:08.713Z,14.80
2019-03-28T12:51:37.104Z,15.30
2019-03-28T12:54:05.539Z,15.10
2019-03-28T12:56:33.924Z,14.60
2019-03-28T12:59:02.346Z,15.20
2019-03-28T13:01:30.758Z,15.30
2019-03-28T13:03:59.199Z,15.20
2019-03-28T13:06:27.640Z,15.50
2019-03-28T13:08:56.051Z,15.80
2019-03-28T13:11:24.442Z,16.20
2019-03-28T13:13:52.919Z,15.80
2019-03-28T13:16:21.352Z,15.60
2019-03-28T13:18:49.746Z,15.70
2019-03-28T13:21:18.137Z,15.90
2019-03-28T13:23:46.552Z,15.10
2019-03-28T13:26:15.008Z,15.00
2019-03-28T13:28:43.410Z,15.70
2019-03-28T13:31:11.891Z,15.90
2019-03-28T13:33:43.295Z,15.30
2019-03-28T13:36:12.684Z,15.20
2019-03-28T13:38:41.100Z,15.20
2019-03-28T13:41:09.537Z,15.30
2019-03-28T13:43:38.039Z,15.50
2019-03-28T13:46:06.693Z,15.50
2019-03-28T13:48:35.246Z,15.30
2019-03-28T13:51:03.689Z,15.40
2019-03-28T13:53:39.548Z,15.40
2019-03-28T13:56:02.134Z,15.60
2019-03-28T13:58:30.541Z,15.70
2019-03-28T14:00:58.942Z,15.60
2019-03-28T14:03:27.347Z,15.40
2019-03-28T14:05:55.844Z,15.40
2019-03-28T14:08:24.217Z,15.20
2019-03-28T14:10:52.612Z,15.20
2019-03-28T14:13:21.639Z,15.10
2019-03-28T14:15:50.252Z,15.30
2019-03-28T14:18:18.663Z,15.20
2019-03-28T14:20:47.122Z,14.60
2019-03-28T14:23:15.544Z,14.50
2019-03-28T14:25:44.900Z,15.20
2019-03-28T14:28:13.300Z,15.50
2019-03-28T14:30:41.686Z,15.40
2019-03-28T14:33:12.200Z,15.20
2019-03-28T14:35:40.282Z,15.30
2019-03-28T14:38:08.668Z,14.50
2019-03-28T14:40:37.198Z,14.10
2019-03-28T14:43:07.037Z,14.10
2019-03-28T14:45:43.378Z,14.70
2019-03-28T14:48:11.750Z,15.20
2019-03-28T14:50:40.480Z,14.60
2019-03-28T14:53:08.822Z,14.90
2019-03-28T14:55:37.251Z,15.20
2019-03-28T14:58:06.668Z,15.40
2019-03-28T15:00:46.525Z,15.50
2019-03-28T15:03:25.043Z,15.30
2019-03-28T15:05:43.603Z,14.60
2019-03-28T15:08:11.961Z,14.70
2019-03-28T15:10:40.405Z,15.10
2019-03-28T15:13:08.811Z,15.00
2019-03-28T15:15:37.247Z,14.90
2019-03-28T15:18:05.657Z,15.00
2019-03-28T15:20:34.143Z,14.80
2019-03-28T15:23:02.547Z,15.00
2019-03-28T15:25:30.954Z,14.90
2019-03-28T15:27:59.410Z,14.80
2019-03-28T15:30:27.827Z,14.70
2019-03-28T15:32:56.229Z,14.50
2019-03-28T15:35:24.670Z,14.50
2019-03-28T15:37:53.074Z,14.40
2019-03-28T15:40:21.512Z,14.50
2019-03-28T15:42:49.915Z,14.40
2019-03-28T15:45:18.332Z,14.40
2019-03-28T15:47:46.768Z,14.30
2019-03-28T15:50:15.212Z,14.20
2019-03-28T15:52:43.616Z,14.20
2019-03-28T15:55:14.565Z,14.10
2019-03-28T15:57:42.118Z,14.00
2019-03-28T16:00:13.644Z,14.00
2019-03-28T16:02:42.042Z,13.90
2019-03-28T16:05:10.490Z,13.80
2019-03-28T16:07:38.884Z,13.70
2019-03-28T16:10:07.705Z,13.70
2019-03-28T16:12:36.118Z,13.60
2019-03-28T16:15:07.836Z,13.60
2019-03-28T16:17:36.267Z,13.80
2019-03-28T16:20:06.633Z,13.70
2019-03-28T16:22:35.060Z,13.80
2019-03-28T16:25:04.145Z,13.80
2019-03-28T16:27:32.570Z,13.70
2019-03-28T16:30:00.986Z,13.70
2019-03-28T16:32:32.846Z,13.50
2019-03-28T16:35:01.244Z,13.60
2019-03-28T16:37:29.688Z,13.70
2019-03-28T16:39:58.119Z,13.60
2019-03-28T16:42:26.539Z,13.70
2019-03-28T16:44:54.966Z,13.70
2019-03-28T16:47:23.398Z,13.50
2019-03-28T16:49:51.826Z,13.50
2019-03-28T16:52:20.236Z,13.50
2019-03-28T16:54:48.675Z,13.30
2019-03-28T16:57:17.079Z,13.40
2019-03-28T16:59:45.532Z,13.30
2019-03-28T17:02:14.928Z,13.30
2019-03-28T17:04:43.346Z,13.30
2019-03-28T17:07:11.764Z,13.20
2019-03-28T17:09:40.182Z,13.10
2019-03-28T17:12:08.618Z,13.00
2019-03-28T17:14:37.347Z,13.00
2019-03-28T17:17:05.761Z,12.90
2019-03-28T17:19:34.162Z,13.00
2019-03-28T17:22:02.642Z,12.90
2019-03-28T17:24:31.047Z,12.80
2019-03-28T17:26:59.460Z,12.80
2019-03-28T17:29:27.911Z,12.60
2019-03-28T17:31:57.315Z,12.60
2019-03-28T17:34:34.765Z,12.60
2019-03-28T17:36:55.805Z,12.60
2019-03-28T17:39:24.218Z,12.60
2019-03-28T17:41:57.746Z,12.50
2019-03-28T17:44:26.422Z,12.40
2019-03-28T17:46:54.849Z,12.30
2019-03-28T17:49:23.299Z,12.30
2019-03-28T17:51:51.741Z,12.20
2019-03-28T17:54:20.143Z,12.20
2019-03-28T17:56:49.239Z,12.20
2019-03-28T17:59:17.663Z,12.20
2019-03-28T18:01:47.023Z,12.20
2019-03-28T18:04:22.882Z,12.10
2019-03-28T18:06:46.541Z,12.10
2019-03-28T18:09:15.181Z,12.00
2019-03-28T18:11:43.598Z,12.10
2019-03-28T18:14:12.011Z,12.10
2019-03-28T18:16:40.434Z,12.00
2019-03-28T18:19:08.854Z,12.00
2019-03-28T18:21:37.297Z,12.00
2019-03-28T18:24:06.713Z,12.00
2019-03-28T18:26:35.136Z,12.00
2019-03-28T18:29:03.581Z,12.10
2019-03-28T18:31:32.039Z,12.00
2019-03-28T18:34:00.449Z,12.00
2019-03-28T18:36:28.877Z,12.00
2019-03-28T18:38:57.290Z,12.00
2019-03-28T18:41:25.695Z,11.90
2019-03-28T18:43:54.167Z,11.80
2019-03-28T18:46:22.570Z,11.80
2019-03-28T18:48:51.020Z,11.80
2019-03-28T18:51:19.427Z,11.80
2019-03-28T18:53:47.855Z,11.80
2019-03-28T18:56:16.254Z,11.80
2019-03-28T18:58:44.734Z,11.70
2019-03-28T19:01:13.145Z,11.70
2019-03-28T19:03:43.187Z,11.70
2019-03-28T19:06:14.785Z,11.70
2019-03-28T19:08:41.687Z,11.70
2019-03-28T19:11:10.128Z,11.60
2019-03-28T19:13:39.641Z,11.60
2019-03-28T19:16:08.301Z,11.60
2019-03-28T19:18:36.721Z,11.60
2019-03-28T19:21:05.174Z,11.60
2019-03-28T19:23:33.608Z,11.60
2019-03-28T19:26:02.020Z,11.60
2019-03-28T19:28:30.454Z,11.50
2019-03-28T19:30:58.886Z,11.60
2019-03-28T19:33:27.477Z,11.50
2019-03-28T19:35:56.949Z,11.50
2019-03-28T19:38:25.353Z,11.50
2019-03-28T19:40:53.779Z,11.50
2019-03-28T19:43:23.169Z,11.40
2019-03-28T19:45:51.738Z,11.40
2019-03-28T19:48:20.189Z,11.30
2019-03-28T19:50:48.596Z,11.30
2019-03-28T19:53:17.842Z,11.30
2019-03-28T19:55:46.550Z,11.40
2019-03-28T19:58:14.974Z,11.40
2019-03-28T20:00:44.023Z,11.30
2019-03-28T20:03:12.717Z,11.30
2019-03-28T20:05:47.468Z,11.30
2019-03-28T20:08:15.751Z,11.20
2019-03-28T20:10:41.278Z,11.20
2019-03-28T20:13:09.776Z,11.20
2019-03-28T20:15:38.179Z,11.20
2019-03-28T20:18:06.587Z,11.20
2019-03-28T20:20:35.028Z,11.10
2019-03-28T20:23:03.452Z,11.20
2019-03-28T20:25:32.662Z,11.30
2019-03-28T20:28:01.257Z,11.20
2019-03-28T20:30:29.710Z,11.20
2019-03-28T20:32:58.203Z,11.20
2019-03-28T20:35:26.616Z,11.10
2019-03-28T20:37:55.073Z,11.10
2019-03-28T20:40:24.096Z,11.10
2019-03-28T20:42:53.191Z,11.00
2019-03-28T20:45:22.019Z,11.10
2019-03-28T20:47:50.953Z,11.10
2019-03-28T20:50:19.600Z,11.00
2019-03-28T20:52:48.132Z,11.10
2019-03-28T20:55:16.640Z,11.10
2019-03-28T20:57:45.142Z,11.10
2019-03-28T21:00:13.570Z,11.10
2019-03-28T21:02:41.973Z,11.10
2019-03-28T21:05:10.421Z,11.10
2019-03-28T21:07:46.041Z,11.10
2019-03-28T21:10:20.626Z,11.10
2019-03-28T21:12:49.040Z,11.10
2019-03-28T21:15:17.492Z,11.00
2019-03-28T21:17:45.948Z,11.00
2019-03-28T21:20:14.370Z,11.00
2019-03-28T21:22:43.074Z,11.00
2019-03-28T21:25:11.644Z,11.00
2019-03-28T21:27:40.050Z,11.00
2019-03-28T21:30:09.694Z,11.00
2019-03-28T21:32:54.733Z,11.00
2019-03-28T21:35:13.003Z,10.90
2019-03-28T21:37:41.476Z,10.90
2019-03-28T21:40:09.888Z,10.90
2019-03-28T21:42:38.814Z,10.90
2019-03-28T21:45:07.412Z,10.90
2019-03-28T21:47:36.460Z,11.00
2019-03-28T21:50:06.506Z,10.90
2019-03-28T21:52:34.977Z,10.90
2019-03-28T21:55:04.267Z,10.90
2019-03-28T21:57:32.667Z,10.90
2019-03-28T22:00:01.124Z,10.90
2019-03-28T22:02:29.552Z,11.00
2019-03-28T22:04:57.977Z,10.90
2019-03-28T22:07:26.388Z,10.90
2019-03-28T22:09:54.819Z,10.90
2019-03-28T22:12:24.207Z,10.90
2019-03-28T22:14:52.702Z,10.90
2019-03-28T22:17:21.123Z,10.80
2019-03-28T22:19:51.685Z,10.80
2019-03-28T22:22:20.275Z,10.80
2019-03-28T22:24:48.734Z,10.80
2019-03-28T22:27:17.140Z,10.80
2019-03-28T22:29:49.293Z,10.70
2019-03-28T22:32:17.836Z,10.70
2019-03-28T22:34:47.909Z,10.70
2019-03-28T22:37:16.378Z,10.70
2019-03-28T22:39:44.792Z,10.70
2019-03-28T22:42:13.250Z,10.60
2019-03-28T22:44:41.655Z,10.70
2019-03-28T22:47:10.107Z,10.60
2019-03-28T22:49:38.565Z,10.70
2019-03-28T22:52:06.992Z,10.70
2019-03-28T22:54:35.824Z,10.80
2019-03-28T22:57:04.294Z,10.70
2019-03-28T22:59:32.709Z,10.70
2019-03-28T23:02:01.172Z,10.70
2019-03-28T23:04:30.077Z,10.90
2019-03-28T23:07:10.434Z,10.90
2019-03-28T23:09:28.698Z,10.90
2019-03-28T23:11:57.119Z,10.90
2019-03-28T23:14:25.606Z,10.90
2019-03-28T23:16:54.892Z,10.80
2019-03-28T23:19:23.463Z,10.80
2019-03-28T23:21:52.917Z,10.80
2019-03-28T23:24:21.415Z,10.70
2019-03-28T23:26:49.874Z,10.70
2019-03-28T23:29:18.325Z,10.80
2019-03-28T23:31:46.890Z,10.70
2019-03-28T23:34:15.430Z,10.70
2019-03-28T23:36:43.874Z,10.60
2019-03-28T23:39:12.358Z,10.70
2019-03-28T23:41:40.797Z,10.70
2019-03-28T23:44:09.272Z,10.70
2019-03-28T23:46:37.895Z,10.60
2019-03-28T23:49:06.378Z,10.60
2019-03-28T23:51:35.777Z,10.80
2019-03-28T23:54:04.187Z,10.80
2019-03-28T23:56:32.658Z,10.80
2019-03-28T23:59:01.083Z,10.70
